Time,TemperatureF,DewpointF,PressureIn,WindDirection,WindDirectionDegrees,WindSpeedMPH,WindSpeedGustMPH,Humidity,HourlyPrecipIn,Conditions,Clouds,dailyrainin,SoftwareType,DateUTC
2013-03-27 00:01:00,47.7,40.2,29.99,SW,233,2.0,3.0,75,0.00,,,0.00,WeatherCatV1.10B1784,2013-03-27 07:01:00,
2013-03-27 00:06:00,47.9,40.4,29.99,West,274,3.0,5.0,75,0.00,,,0.00,WeatherCatV1.10B1784,2013-03-27 07:06:00,
2013-03-27 00:11:00,48.1,40.2,29.99,West,268,2.0,3.0,74,0.00,,,0.00,WeatherCatV1.10B1784,2013-03-27 07:11:00,
2013-03-27 00:16:00,48.2,40.0,29.99,WSW,257,1.0,2.0,73,0.00,,,0.00,WeatherCatV1.10B1784,2013-03-27 07:16:00,
2013-03-27 00:21:00,48.2,40.0,29.99,WSW,250,0.0,3.0,73,0.00,,,0.00,WeatherCatV1.10B1784,2013-03-27 07:21:00,
2013-03-27 00:26:00,48.3,40.1,29.99,West,264,1.0,3.0,73,0.00,,,0.00,WeatherCatV1.10B1784,2013-03-27 07:26:00,
2013-03-27 00:31:00,48.4,39.8,29.99,West,274,0.0,1.0,72,0.00,,,0.00,WeatherCatV1.10B1784,2013-03-27 07:31:00,
2013-03-27 00:36:00,48.3,40.1,29.99,WNW,295,2.0,2.0,73,0.00,,,0.00,WeatherCatV1.10B1784,2013-03-27 07:36:00,
2013-03-27 00:41:00,48.5,39.9,29.99,SSW,208,1.0,4.0,72,0.00,,,0.00,WeatherCatV1.10B1784,2013-03-27 07:41:00,
2013-03-27 00:46:00,48.7,40.1,29.99,West,275,0.0,1.0,72,0.00,,,0.00,WeatherCatV1.10B1784,2013-03-27 07:46:00,
2013-03-27 00:51:00,48.5,40.2,29.99,WNW,284,0.0,0.0,73,0.00,,,0.00,WeatherCatV1.10B1784,2013-03-27 07:51:00,
2013-03-27 00:56:00,48.1,41.6,29.99,WNW,301,0.0,1.0,78,0.00,,,0.00,WeatherCatV1.10B1784,2013-03-27 07:56:00,
2013-03-27 01:01:00,47.6,41.7,29.99,West,271,0.0,1.0,80,0.00,,,0.00,WeatherCatV1.10B1784,2013-03-27 08:01:00,
2013-03-27 01:06:00,47.2,41.3,29.99,West,267,0.0,1.0,80,0.00,,,0.00,WeatherCatV1.10B1784,2013-03-27 08:06:00,
2013-03-27 01:11:00,46.8,41.0,29.99,WSW,248,1.0,1.0,80,0.00,,,0.00,WeatherCatV1.10B1784,2013-03-27 08:11:00,
2013-03-27 01:16:00,46.7,40.5,29.99,WSW,245,0.0,2.0,79,0.00,,,0.00,WeatherCatV1.10B1784,2013-03-27 08:16:00,
2013-03-27 01:21:00,47.1,40.6,29.99,WSW,252,1.0,2.0,78,0.00,,,0.00,WeatherCatV1.10B1784,2013-03-27 08:21:00,
2013-03-27 01:26:00,47.3,40.5,29.99,West,260,1.0,1.0,77,0.00,,,0.00,WeatherCatV1.10B1784,2013-03-27 08:26:00,
2013-03-27 01:31:00,47.5,40.3,29.99,SW,226,1.0,1.0,76,0.00,,,0.00,WeatherCatV1.10B1784,2013-03-27 08:31:00,
2013-03-27 01:36:00,47.6,40.4,29.98,WNW,283,0.0,2.0,76,0.00,,,0.00,WeatherCatV1.10B1784,2013-03-27 08:36:00,
2013-03-27 01:41:00,47.7,40.8,29.99,WNW,284,3.0,4.0,77,0.00,,,0.00,WeatherCatV1.10B1784,2013-03-27 08:41:00,
2013-03-27 01:46:00,47.9,41.0,29.99,WNW,295,2.0,2.0,77,0.00,,,0.00,WeatherCatV1.10B1784,2013-03-27 08:46:00,
2013-03-27 01:51:00,47.9,41.0,29.98,West,273,1.0,3.0,77,0.00,,,0.00,WeatherCatV1.10B1784,2013-03-27 08:51:00,
2013-03-27 01:56:00,48.0,41.1,29.98,WSW,257,2.0,3.0,77,0.00,,,0.00,WeatherCatV1.10B1784,2013-03-27 08:56:00,
2013-03-27 02:01:00,48.1,40.9,29.98,WNW,285,1.0,3.0,76,0.00,,,0.00,WeatherCatV1.10B1784,2013-03-27 09:01:00,
2013-03-27 02:06:00,48.1,40.9,29.98,West,270,1.0,1.0,76,0.00,,,0.00,WeatherCatV1.10B1784,2013-03-27 09:06:00,
2013-03-27 02:11:00,48.0,40.8,29.98,West,269,0.0,1.0,76,0.00,,,0.00,WeatherCatV1.10B1784,2013-03-27 09:11:00,
2013-03-27 02:16:00,47.8,40.9,29.98,WSW,248,0.0,0.0,77,0.00,,,0.00,WeatherCatV1.10B1784,2013-03-27 09:16:00,
2013-03-27 02:21:00,47.5,40.7,29.98,WSW,248,0.0,1.0,77,0.00,,,0.00,WeatherCatV1.10B1784,2013-03-27 09:21:00,
2013-03-27 02:26:00,47.4,40.9,29.98,WSW,242,2.0,2.0,78,0.00,,,0.00,WeatherCatV1.10B1784,2013-03-27 09:26:00,
2013-03-27 02:31:00,47.5,40.7,29.98,West,266,1.0,3.0,77,0.00,,,0.00,WeatherCatV1.10B1784,2013-03-27 09:31:00,
2013-03-27 02:36:00,47.7,40.8,29.98,WNW,287,2.0,3.0,77,0.00,,,0.00,WeatherCatV1.10B1784,2013-03-27 09:36:00,
2013-03-27 02:41:00,48.0,40.8,29.98,WNW,288,0.0,2.0,76,0.00,,,0.00,WeatherCatV1.10B1784,2013-03-27 09:41:00,
2013-03-27 02:46:00,47.8,40.6,29.98,WNW,288,0.0,0.0,76,0.00,,,0.00,WeatherCatV1.10B1784,2013-03-27 09:46:00,
2013-03-27 02:51:00,47.4,40.6,29.98,WNW,288,0.0,0.0,77,0.00,,,0.00,WeatherCatV1.10B1784,2013-03-27 09:51:00,
2013-03-27 02:56:00,47.0,40.8,29.98,WNW,289,0.0,0.0,79,0.00,,,0.00,WeatherCatV1.10B1784,2013-03-27 09:56:00,
2013-03-27 03:01:00,46.7,41.2,29.98,SW,224,1.0,1.0,81,0.00,,,0.00,WeatherCatV1.10B1784,2013-03-27 10:01:00,
2013-03-27 03:06:00,46.6,40.8,29.98,WSW,240,0.0,1.0,80,0.00,,,0.00,WeatherCatV1.10B1784,2013-03-27 10:06:00,
2013-03-27 03:11:00,46.5,40.3,29.98,WSW,257,1.0,1.0,79,0.00,,,0.00,WeatherCatV1.10B1784,2013-03-27 10:11:00,
2013-03-27 03:16:00,46.7,40.2,29.98,WSW,241,1.0,1.0,78,0.00,,,0.00,WeatherCatV1.10B1784,2013-03-27 10:16:00,
2013-03-27 03:21:00,46.8,40.0,29.98,WSW,242,1.0,3.0,77,0.00,,,0.00,WeatherCatV1.10B1784,2013-03-27 10:21:00,
2013-03-27 03:26:00,47.0,39.8,29.98,West,269,1.0,3.0,76,0.00,,,0.00,WeatherCatV1.10B1784,2013-03-27 10:26:00,
2013-03-27 03:31:00,47.4,39.5,29.98,West,273,3.0,5.0,74,0.00,,,0.00,WeatherCatV1.10B1784,2013-03-27 10:31:00,
2013-03-27 03:36:00,47.5,39.6,29.98,WSW,239,2.0,2.0,74,0.00,,,0.00,WeatherCatV1.10B1784,2013-03-27 10:36:00,
2013-03-27 03:41:00,47.7,39.5,29.98,West,259,1.0,3.0,73,0.00,,,0.00,WeatherCatV1.10B1784,2013-03-27 10:41:00,
2013-03-27 03:46:00,47.7,39.5,29.98,West,261,0.0,2.0,73,0.00,,,0.00,WeatherCatV1.10B1784,2013-03-27 10:46:00,
2013-03-27 03:51:00,47.6,39.4,29.98,West,262,0.0,1.0,73,0.00,,,0.00,WeatherCatV1.10B1784,2013-03-27 10:51:00,
2013-03-27 03:56:00,47.4,39.2,29.98,WSW,256,0.0,1.0,73,0.00,,,0.00,WeatherCatV1.10B1784,2013-03-27 10:56:00,
2013-03-27 04:01:00,47.0,39.1,29.98,WSW,256,1.0,1.0,74,0.00,,,0.00,WeatherCatV1.10B1784,2013-03-27 11:01:00,
2013-03-27 04:06:00,46.7,39.2,29.98,WSW,256,1.0,1.0,75,0.00,,,0.00,WeatherCatV1.10B1784,2013-03-27 11:06:00,
2013-03-27 04:11:00,46.5,39.0,29.98,WSW,243,1.0,1.0,75,0.00,,,0.00,WeatherCatV1.10B1784,2013-03-27 11:11:00,
2013-03-27 04:16:00,46.4,38.9,29.98,WSW,252,1.0,2.0,75,0.00,,,0.00,WeatherCatV1.10B1784,2013-03-27 11:16:00,
2013-03-27 04:21:00,46.3,38.8,29.98,West,260,1.0,1.0,75,0.00,,,0.00,WeatherCatV1.10B1784,2013-03-27 11:21:00,
2013-03-27 04:26:00,46.2,38.7,29.98,SW,233,0.0,1.0,75,0.00,,,0.00,WeatherCatV1.10B1784,2013-03-27 11:26:00,
2013-03-27 04:31:00,45.9,38.8,29.98,SW,233,0.0,0.0,76,0.00,,,0.00,WeatherCatV1.10B1784,2013-03-27 11:31:00,
2013-03-27 04:36:00,45.8,38.7,29.98,WSW,248,1.0,1.0,76,0.00,,,0.00,WeatherCatV1.10B1784,2013-03-27 11:36:00,
2013-03-27 04:41:00,46.0,38.9,29.98,WSW,245,1.0,2.0,76,0.00,,,0.00,WeatherCatV1.10B1784,2013-03-27 11:41:00,
2013-03-27 04:46:00,46.1,38.6,29.98,WSW,243,0.0,2.0,75,0.00,,,0.00,WeatherCatV1.10B1784,2013-03-27 11:46:00,
2013-03-27 04:51:00,46.0,38.5,29.98,SW,235,1.0,2.0,75,0.00,,,0.00,WeatherCatV1.10B1784,2013-03-27 11:51:00,
2013-03-27 04:56:00,45.9,38.8,29.98,SW,226,1.0,2.0,76,0.00,,,0.00,WeatherCatV1.10B1784,2013-03-27 11:56:00,
2013-03-27 05:01:00,45.8,38.7,29.98,WSW,239,2.0,2.0,76,0.00,,,0.00,WeatherCatV1.10B1784,2013-03-27 12:01:00,
2013-03-27 05:06:00,45.9,38.8,29.98,West,262,2.0,2.0,76,0.00,,,0.00,WeatherCatV1.10B1784,2013-03-27 12:06:00,
2013-03-27 05:11:00,46.0,38.9,29.98,WSW,248,1.0,2.0,76,0.00,,,0.00,WeatherCatV1.10B1784,2013-03-27 12:11:00,
2013-03-27 05:16:00,46.0,38.9,29.98,WSW,245,0.0,0.0,76,0.00,,,0.00,WeatherCatV1.10B1784,2013-03-27 12:16:00,
2013-03-27 05:21:00,45.9,39.1,29.98,WSW,246,1.0,1.0,77,0.00,,,0.00,WeatherCatV1.10B1784,2013-03-27 12:21:00,
2013-03-27 05:26:00,45.9,39.1,29.98,WSW,256,0.0,1.0,77,0.00,,,0.00,WeatherCatV1.10B1784,2013-03-27 12:26:00,
2013-03-27 05:31:00,45.8,39.0,29.98,WSW,238,1.0,2.0,77,0.00,,,0.00,WeatherCatV1.10B1784,2013-03-27 12:31:00,
2013-03-27 05:36:00,45.9,39.1,29.98,SW,233,1.0,1.0,77,0.00,,,0.00,WeatherCatV1.10B1784,2013-03-27 12:36:00,
2013-03-27 05:41:00,45.8,39.3,29.98,WSW,243,2.0,2.0,78,0.00,,,0.00,WeatherCatV1.10B1784,2013-03-27 12:41:00,
2013-03-27 05:46:00,45.7,39.2,29.98,SW,236,2.0,3.0,78,0.00,,,0.00,WeatherCatV1.10B1784,2013-03-27 12:46:00,
2013-03-27 05:51:00,45.7,39.6,29.98,WSW,243,1.0,2.0,79,0.00,,,0.00,WeatherCatV1.10B1784,2013-03-27 12:51:00,
2013-03-27 05:56:00,45.7,39.6,29.98,WSW,252,0.0,2.0,79,0.00,,,0.00,WeatherCatV1.10B1784,2013-03-27 12:56:00,
2013-03-27 06:01:00,45.7,39.6,29.98,WSW,245,1.0,1.0,79,0.00,,,0.00,WeatherCatV1.10B1784,2013-03-27 13:01:00,
2013-03-27 06:06:00,45.5,39.4,29.98,SW,229,1.0,1.0,79,0.00,,,0.00,WeatherCatV1.10B1784,2013-03-27 13:06:00,
2013-03-27 06:11:00,45.4,39.3,29.98,WSW,250,0.0,1.0,79,0.00,,,0.00,WeatherCatV1.10B1784,2013-03-27 13:11:00,
2013-03-27 06:16:00,45.3,39.2,29.98,WSW,245,1.0,1.0,79,0.00,,,0.00,WeatherCatV1.10B1784,2013-03-27 13:16:00,
2013-03-27 06:21:00,45.3,39.2,29.98,WSW,253,1.0,1.0,79,0.00,,,0.00,WeatherCatV1.10B1784,2013-03-27 13:21:00,
2013-03-27 06:26:00,45.2,39.1,29.98,WSW,238,1.0,2.0,79,0.00,,,0.00,WeatherCatV1.10B1784,2013-03-27 13:26:00,
2013-03-27 06:31:00,45.2,39.1,29.98,SW,226,1.0,1.0,79,0.00,,,0.00,WeatherCatV1.10B1784,2013-03-27 13:31:00,
2013-03-27 06:36:00,45.2,39.1,29.99,SW,236,0.0,2.0,79,0.00,,,0.00,WeatherCatV1.10B1784,2013-03-27 13:36:00,
2013-03-27 06:41:00,45.2,39.1,29.99,WSW,238,1.0,2.0,79,0.00,,,0.00,WeatherCatV1.10B1784,2013-03-27 13:41:00,
2013-03-27 06:46:00,45.3,39.5,29.99,WSW,248,0.0,2.0,80,0.00,,,0.00,WeatherCatV1.10B1784,2013-03-27 13:46:00,
2013-03-27 06:51:00,45.3,39.2,29.99,WSW,255,1.0,1.0,79,0.00,,,0.00,WeatherCatV1.10B1784,2013-03-27 13:51:00,
2013-03-27 06:56:00,45.3,39.5,29.99,WSW,250,1.0,1.0,80,0.00,,,0.00,WeatherCatV1.10B1784,2013-03-27 13:56:00,
2013-03-27 07:01:00,45.3,39.5,29.99,WNW,283,2.0,2.0,80,0.00,,,0.00,WeatherCatV1.10B1784,2013-03-27 14:01:00,
2013-03-27 07:06:00,45.5,40.0,29.98,West,262,0.0,2.0,81,0.00,,,0.00,WeatherCatV1.10B1784,2013-03-27 14:06:00,
2013-03-27 07:11:00,45.6,39.8,29.98,WSW,245,1.0,2.0,80,0.00,,,0.00,WeatherCatV1.10B1784,2013-03-27 14:11:00,
2013-03-27 07:16:00,45.6,40.1,29.99,WSW,240,0.0,1.0,81,0.00,,,0.00,WeatherCatV1.10B1784,2013-03-27 14:16:00,
2013-03-27 07:21:00,45.5,40.0,29.99,WSW,242,0.0,1.0,81,0.00,,,0.00,WeatherCatV1.10B1784,2013-03-27 14:21:00,
2013-03-27 07:26:00,45.5,40.0,29.99,WSW,257,0.0,1.0,81,0.00,,,0.00,WeatherCatV1.10B1784,2013-03-27 14:26:00,
2013-03-27 07:31:00,45.5,40.0,29.99,WSW,256,1.0,1.0,81,0.00,,,0.00,WeatherCatV1.10B1784,2013-03-27 14:31:00,
2013-03-27 07:36:00,45.5,40.0,29.99,WSW,245,0.0,1.0,81,0.00,,,0.00,WeatherCatV1.10B1784,2013-03-27 14:36:00,
2013-03-27 07:41:00,45.4,39.9,29.99,WSW,245,0.0,1.0,81,0.00,,,0.00,WeatherCatV1.10B1784,2013-03-27 14:41:00,
2013-03-27 07:46:00,45.3,39.8,29.99,WSW,245,0.0,1.0,81,0.00,,,0.00,WeatherCatV1.10B1784,2013-03-27 14:46:00,
2013-03-27 07:51:00,45.3,40.1,29.99,WSW,245,0.0,1.0,82,0.00,,,0.00,WeatherCatV1.10B1784,2013-03-27 14:51:00,
2013-03-27 07:56:00,45.4,40.2,29.99,WNW,285,1.0,1.0,82,0.00,,,0.00,WeatherCatV1.10B1784,2013-03-27 14:56:00,
2013-03-27 08:01:00,45.6,40.7,29.99,WNW,290,1.0,2.0,83,0.00,,,0.00,WeatherCatV1.10B1784,2013-03-27 15:01:00,
2013-03-27 08:06:00,45.9,41.0,29.99,WNW,295,2.0,3.0,83,0.00,,,0.00,WeatherCatV1.10B1784,2013-03-27 15:06:00,
2013-03-27 08:11:00,46.0,41.4,29.99,WNW,301,3.0,3.0,84,0.00,,,0.00,WeatherCatV1.10B1784,2013-03-27 15:11:00,
2013-03-27 08:16:00,46.2,41.6,29.99,West,269,1.0,3.0,84,0.00,,,0.00,WeatherCatV1.10B1784,2013-03-27 15:16:00,
2013-03-27 08:21:00,46.4,41.8,29.99,WNW,300,2.0,2.0,84,0.00,,,0.00,WeatherCatV1.10B1784,2013-03-27 15:21:00,
2013-03-27 08:26:00,46.6,42.0,29.99,NW,319,2.0,3.0,84,0.00,,,0.00,WeatherCatV1.10B1784,2013-03-27 15:26:00,
2013-03-27 08:31:00,46.8,42.2,29.99,NW,314,2.0,4.0,84,0.00,,,0.00,WeatherCatV1.10B1784,2013-03-27 15:31:00,
2013-03-27 08:36:00,46.9,42.3,29.99,NW,304,3.0,4.0,84,0.00,,,0.00,WeatherCatV1.10B1784,2013-03-27 15:36:00,
2013-03-27 08:41:00,47.1,42.5,29.99,WNW,298,4.0,5.0,84,0.00,,,0.00,WeatherCatV1.10B1784,2013-03-27 15:41:00,
2013-03-27 08:46:00,47.2,42.6,29.99,NW,308,4.0,4.0,84,0.00,,,0.00,WeatherCatV1.10B1784,2013-03-27 15:46:00,
2013-03-27 08:51:00,47.2,42.6,29.99,WNW,295,3.0,3.0,84,0.00,,,0.00,WeatherCatV1.10B1784,2013-03-27 15:51:00,
2013-03-27 08:56:00,47.3,42.7,29.99,NW,305,3.0,4.0,84,0.00,,,0.00,WeatherCatV1.10B1784,2013-03-27 15:56:00,
2013-03-27 09:01:00,47.3,42.7,29.99,NW,307,3.0,5.0,84,0.00,,,0.00,WeatherCatV1.10B1784,2013-03-27 16:01:00,
2013-03-27 09:06:00,47.2,42.6,29.99,NW,311,5.0,6.0,84,0.00,,,0.00,WeatherCatV1.10B1784,2013-03-27 16:06:00,
2013-03-27 09:11:00,47.3,43.0,29.99,NW,304,4.0,6.0,85,0.00,,,0.00,WeatherCatV1.10B1784,2013-03-27 16:11:00,
2013-03-27 09:16:00,47.5,42.6,29.99,NW,315,6.0,9.0,83,0.00,,,0.00,WeatherCatV1.10B1784,2013-03-27 16:16:00,
2013-03-27 09:21:00,47.7,42.8,29.99,NW,305,7.0,8.0,83,0.00,,,0.00,WeatherCatV1.10B1784,2013-03-27 16:21:00,
2013-03-27 09:26:00,47.7,43.1,29.99,NW,304,8.0,8.0,84,0.00,,,0.00,WeatherCatV1.10B1784,2013-03-27 16:26:00,
2013-03-27 09:31:00,47.8,43.5,29.99,NW,316,7.0,8.0,85,0.00,,,0.00,WeatherCatV1.10B1784,2013-03-27 16:31:00,
2013-03-27 09:36:00,47.8,43.5,29.99,NNW,341,4.0,7.0,85,0.00,,,0.00,WeatherCatV1.10B1784,2013-03-27 16:36:00,
2013-03-27 09:41:00,48.0,44.0,29.99,NW,319,2.0,6.0,86,0.00,,,0.00,WeatherCatV1.10B1784,2013-03-27 16:41:00,
2013-03-27 09:46:00,48.1,44.1,29.99,WNW,284,4.0,7.0,86,0.00,,,0.00,WeatherCatV1.10B1784,2013-03-27 16:46:00,
2013-03-27 09:51:00,48.2,44.2,29.99,North,11,4.0,7.0,86,0.00,,,0.00,WeatherCatV1.10B1784,2013-03-27 16:51:00,
2013-03-27 09:56:00,48.4,44.7,29.99,NNW,330,3.0,4.0,87,0.00,,,0.00,WeatherCatV1.10B1784,2013-03-27 16:56:00,
2013-03-27 10:01:00,48.5,44.8,29.99,North,352,1.0,5.0,87,0.00,,,0.00,WeatherCatV1.10B1784,2013-03-27 17:01:00,
2013-03-27 10:06:00,48.6,44.9,29.99,NW,315,1.0,6.0,87,0.00,,,0.00,WeatherCatV1.10B1784,2013-03-27 17:06:00,
2013-03-27 10:11:00,48.7,44.7,29.99,NW,307,2.0,5.0,86,0.00,,,0.00,WeatherCatV1.10B1784,2013-03-27 17:11:00,
2013-03-27 10:16:00,48.5,44.5,29.99,NW,307,4.0,4.0,86,0.00,,,0.00,WeatherCatV1.10B1784,2013-03-27 17:16:00,
2013-03-27 10:21:00,48.5,44.8,29.99,NW,314,2.0,5.0,87,0.00,,,0.00,WeatherCatV1.10B1784,2013-03-27 17:21:00,
2013-03-27 10:26:00,48.5,44.8,29.99,North,1,2.0,3.0,87,0.00,,,0.00,WeatherCatV1.10B1784,2013-03-27 17:26:00,
2013-03-27 10:31:00,48.4,44.7,29.99,NW,326,1.0,4.0,87,0.00,,,0.00,WeatherCatV1.10B1784,2013-03-27 17:31:00,
2013-03-27 10:36:00,48.4,45.0,29.99,NW,326,3.0,3.0,88,0.00,,,0.00,WeatherCatV1.10B1784,2013-03-27 17:36:00,
2013-03-27 10:41:00,48.3,44.9,29.99,NW,307,2.0,4.0,88,0.00,,,0.00,WeatherCatV1.10B1784,2013-03-27 17:41:00,
2013-03-27 10:46:00,48.2,44.8,29.99,NW,311,5.0,5.0,88,0.00,,,0.00,WeatherCatV1.10B1784,2013-03-27 17:46:00,
2013-03-27 10:51:00,48.3,45.2,29.99,WNW,291,3.0,4.0,89,0.00,,,0.00,WeatherCatV1.10B1784,2013-03-27 17:51:00,
2013-03-27 10:56:00,48.4,45.0,29.99,WNW,295,3.0,4.0,88,0.00,,,0.00,WeatherCatV1.10B1784,2013-03-27 17:56:00,
2013-03-27 11:01:00,48.5,45.1,29.99,WNW,294,3.0,4.0,88,0.00,,,0.00,WeatherCatV1.10B1784,2013-03-27 18:01:00,
2013-03-27 11:06:00,48.5,45.1,29.99,WNW,298,5.0,5.0,88,0.00,,,0.00,WeatherCatV1.10B1784,2013-03-27 18:06:00,
2013-03-27 11:11:00,48.4,45.0,29.99,WNW,293,5.0,5.0,88,0.00,,,0.00,WeatherCatV1.10B1784,2013-03-27 18:11:00,
2013-03-27 11:16:00,48.3,45.2,29.99,NW,307,4.0,5.0,89,0.00,,,0.00,WeatherCatV1.10B1784,2013-03-27 18:16:00,
2013-03-27 11:21:00,48.2,45.1,29.99,WNW,293,4.0,5.0,89,0.00,,,0.00,WeatherCatV1.10B1784,2013-03-27 18:21:00,
2013-03-27 11:26:00,48.2,45.1,29.99,WNW,293,3.0,4.0,89,0.00,,,0.00,WeatherCatV1.10B1784,2013-03-27 18:26:00,
2013-03-27 11:31:00,48.3,45.2,29.99,NW,321,3.0,5.0,89,0.00,,,0.00,WeatherCatV1.10B1784,2013-03-27 18:31:00,
2013-03-27 11:36:00,48.4,45.3,29.99,WNW,291,2.0,4.0,89,0.00,,,0.00,WeatherCatV1.10B1784,2013-03-27 18:36:00,
2013-03-27 11:41:00,48.4,45.0,29.99,NW,316,5.0,5.0,88,0.00,,,0.00,WeatherCatV1.10B1784,2013-03-27 18:41:00,
2013-03-27 11:46:00,48.5,45.1,29.99,WNW,290,1.0,3.0,88,0.00,,,0.00,WeatherCatV1.10B1784,2013-03-27 18:46:00,
2013-03-27 11:51:00,48.7,45.3,29.99,NW,308,3.0,4.0,88,0.00,,,0.00,WeatherCatV1.10B1784,2013-03-27 18:51:00,
2013-03-27 11:56:00,48.8,45.4,29.99,West,277,1.0,3.0,88,0.00,,,0.00,WeatherCatV1.10B1784,2013-03-27 18:56:00,
2013-03-27 12:01:00,49.1,45.1,29.99,WNW,282,4.0,4.0,86,0.00,,,0.00,WeatherCatV1.10B1784,2013-03-27 19:01:00,
2013-03-27 12:06:00,49.3,45.0,29.99,West,278,2.0,4.0,85,0.00,,,0.00,WeatherCatV1.10B1784,2013-03-27 19:06:00,
2013-03-27 12:11:00,49.4,45.1,29.98,WNW,283,3.0,3.0,85,0.00,,,0.00,WeatherCatV1.10B1784,2013-03-27 19:11:00,
2013-03-27 12:16:00,49.4,45.1,29.99,WNW,290,3.0,4.0,85,0.00,,,0.00,WeatherCatV1.10B1784,2013-03-27 19:16:00,
2013-03-27 12:22:00,49.4,45.1,29.98,NW,311,4.0,4.0,85,0.00,,,0.00,WeatherCatV1.10B1784,2013-03-27 19:22:00,
2013-03-27 12:27:00,49.5,44.9,29.98,WNW,300,3.0,4.0,84,0.00,,,0.00,WeatherCatV1.10B1784,2013-03-27 19:27:00,
2013-03-27 12:32:00,49.7,45.4,29.98,West,277,3.0,6.0,85,0.00,,,0.00,WeatherCatV1.10B1784,2013-03-27 19:32:00,
2013-03-27 12:37:00,49.7,45.4,29.98,WNW,290,3.0,4.0,85,0.00,,,0.00,WeatherCatV1.10B1784,2013-03-27 19:37:00,
2013-03-27 12:42:00,49.7,45.4,29.98,NW,307,3.0,3.0,85,0.00,,,0.00,WeatherCatV1.10B1784,2013-03-27 19:42:00,
2013-03-27 12:47:00,49.9,45.9,29.98,WNW,288,2.0,4.0,86,0.00,,,0.00,WeatherCatV1.10B1784,2013-03-27 19:47:00,
2013-03-27 12:52:00,49.9,45.9,29.98,West,270,1.0,3.0,86,0.00,,,0.00,WeatherCatV1.10B1784,2013-03-27 19:52:00,
2013-03-27 12:56:00,50.1,46.1,29.98,West,280,1.0,4.0,86,0.00,,,0.00,WeatherCatV1.10B1784,2013-03-27 19:56:00,
2013-03-27 13:01:00,50.3,46.0,29.98,West,280,3.0,4.0,85,0.00,,,0.00,WeatherCatV1.10B1784,2013-03-27 20:01:00,
2013-03-27 13:06:00,50.1,45.8,29.98,WNW,300,3.0,5.0,85,0.00,,,0.00,WeatherCatV1.10B1784,2013-03-27 20:06:00,
2013-03-27 13:11:00,50.1,46.1,29.98,WNW,291,3.0,4.0,86,0.00,,,0.00,WeatherCatV1.10B1784,2013-03-27 20:11:00,
2013-03-27 13:16:00,50.1,46.1,29.98,NW,307,2.0,4.0,86,0.00,,,0.00,WeatherCatV1.10B1784,2013-03-27 20:16:00,
2013-03-27 13:21:00,49.9,45.9,29.98,WNW,300,3.0,5.0,86,0.00,,,0.00,WeatherCatV1.10B1784,2013-03-27 20:21:00,
2013-03-27 13:26:00,50.2,46.5,29.98,WNW,295,3.0,4.0,87,0.00,,,0.00,WeatherCatV1.10B1784,2013-03-27 20:26:00,
2013-03-27 13:35:00,50.3,46.0,29.98,NW,307,6.0,6.0,85,0.00,,,0.00,WeatherCatV1.10B1784,2013-03-27 20:35:00,
2013-03-27 13:40:00,50.4,46.1,29.98,NW,304,5.0,5.0,85,0.00,,,0.00,WeatherCatV1.10B1784,2013-03-27 20:40:00,
2013-03-27 13:45:00,50.4,45.7,29.98,WNW,293,2.0,5.0,84,0.00,,,0.00,WeatherCatV1.10B1784,2013-03-27 20:45:00,
2013-03-27 13:50:00,50.4,46.1,29.98,WNW,300,3.0,4.0,85,0.00,,,0.00,WeatherCatV1.10B1784,2013-03-27 20:50:00,
2013-03-27 13:55:00,50.6,46.6,29.97,NW,307,3.0,3.0,86,0.00,,,0.00,WeatherCatV1.10B1784,2013-03-27 20:55:00,
2013-03-27 14:00:00,51.0,46.3,29.97,West,271,1.0,4.0,84,0.00,,,0.00,WeatherCatV1.10B1784,2013-03-27 21:00:00,
2013-03-27 14:05:00,51.1,46.1,29.97,WNW,296,3.0,3.0,83,0.00,,,0.00,WeatherCatV1.10B1784,2013-03-27 21:05:00,
2013-03-27 14:10:00,51.1,46.1,29.97,West,279,2.0,3.0,83,0.00,,,0.00,WeatherCatV1.10B1784,2013-03-27 21:10:00,
2013-03-27 14:15:00,51.0,45.7,29.97,WNW,290,2.0,4.0,82,0.00,,,0.00,WeatherCatV1.10B1784,2013-03-27 21:15:00,
2013-03-27 14:20:00,51.2,45.6,29.97,WNW,283,3.0,6.0,81,0.00,,,0.00,WeatherCatV1.10B1784,2013-03-27 21:20:00,
2013-03-27 14:25:00,51.4,45.1,29.97,West,277,4.0,4.0,79,0.00,,,0.00,WeatherCatV1.10B1784,2013-03-27 21:25:00,
2013-03-27 14:30:00,51.4,45.1,29.97,WNW,287,1.0,3.0,79,0.00,,,0.00,WeatherCatV1.10B1784,2013-03-27 21:30:00,
2013-03-27 14:35:00,51.6,45.0,29.97,NW,314,2.0,3.0,78,0.00,,,0.00,WeatherCatV1.10B1784,2013-03-27 21:35:00,
2013-03-27 14:40:00,51.4,44.4,29.97,West,271,4.0,4.0,77,0.00,,,0.00,WeatherCatV1.10B1784,2013-03-27 21:40:00,
2013-03-27 14:45:00,51.7,45.1,29.97,WNW,289,2.0,4.0,78,0.00,,,0.00,WeatherCatV1.10B1784,2013-03-27 21:45:00,
2013-03-27 14:50:00,51.9,44.6,29.97,WNW,295,4.0,4.0,76,0.00,,,0.00,WeatherCatV1.10B1784,2013-03-27 21:50:00,
2013-03-27 14:55:00,52.0,44.7,29.97,WNW,293,3.0,4.0,76,0.00,,,0.00,WeatherCatV1.10B1784,2013-03-27 21:55:00,
2013-03-27 15:00:00,52.4,45.1,29.97,West,270,2.0,4.0,76,0.00,,,0.00,WeatherCatV1.10B1784,2013-03-27 22:00:00,
2013-03-27 15:05:00,52.4,44.0,29.96,WNW,290,3.0,5.0,73,0.00,,,0.00,WeatherCatV1.10B1784,2013-03-27 22:05:00,
2013-03-27 15:10:00,52.8,44.7,29.96,West,278,3.0,5.0,74,0.00,,,0.00,WeatherCatV1.10B1784,2013-03-27 22:10:00,
2013-03-27 15:15:00,52.9,44.8,29.96,WNW,282,3.0,4.0,74,0.00,,,0.00,WeatherCatV1.10B1784,2013-03-27 22:15:00,
2013-03-27 15:20:00,52.9,44.8,29.96,WNW,293,1.0,3.0,74,0.00,,,0.00,WeatherCatV1.10B1784,2013-03-27 22:20:00,
2013-03-27 15:25:00,52.9,45.2,29.96,WNW,284,1.0,4.0,75,0.00,,,0.00,WeatherCatV1.10B1784,2013-03-27 22:25:00,
2013-03-27 15:30:00,53.3,45.6,29.96,West,271,2.0,3.0,75,0.00,,,0.00,WeatherCatV1.10B1784,2013-03-27 22:30:00,
2013-03-27 15:35:00,53.4,45.0,29.96,WSW,255,2.0,4.0,73,0.00,,,0.00,WeatherCatV1.10B1784,2013-03-27 22:35:00,
2013-03-27 15:40:00,53.2,44.4,29.96,West,278,2.0,4.0,72,0.00,,,0.00,WeatherCatV1.10B1784,2013-03-27 22:40:00,
2013-03-27 15:45:00,53.2,44.8,29.96,WNW,297,3.0,4.0,73,0.00,,,0.00,WeatherCatV1.10B1784,2013-03-27 22:45:00,
2013-03-27 15:50:00,52.8,44.4,29.96,NW,304,3.0,5.0,73,0.00,,,0.00,WeatherCatV1.10B1784,2013-03-27 22:50:00,
2013-03-27 15:55:00,52.6,44.9,29.96,WNW,296,2.0,3.0,75,0.00,,,0.00,WeatherCatV1.10B1784,2013-03-27 22:55:00,
2013-03-27 16:00:00,52.5,45.2,29.96,NW,305,3.0,4.0,76,0.00,,,0.00,WeatherCatV1.10B1784,2013-03-27 23:00:00,
2013-03-27 16:05:00,52.4,45.1,29.96,NW,322,2.0,3.0,76,0.00,,,0.00,WeatherCatV1.10B1784,2013-03-27 23:05:00,
2013-03-27 16:10:00,52.3,45.0,29.96,WNW,285,1.0,2.0,76,0.00,,,0.00,WeatherCatV1.10B1784,2013-03-27 23:10:00,
2013-03-27 16:15:00,52.6,44.6,29.96,West,278,3.0,3.0,74,0.00,,,0.00,WeatherCatV1.10B1784,2013-03-27 23:15:00,
2013-03-27 16:20:00,53.2,44.8,29.96,NW,309,1.0,2.0,73,0.00,,,0.00,WeatherCatV1.10B1784,2013-03-27 23:20:00,
2013-03-27 16:25:00,53.4,44.2,29.96,WNW,301,3.0,4.0,71,0.00,,,0.00,WeatherCatV1.10B1784,2013-03-27 23:25:00,
2013-03-27 16:30:00,53.4,43.5,29.96,NW,305,3.0,6.0,69,0.00,,,0.00,WeatherCatV1.10B1784,2013-03-27 23:30:00,
2013-03-27 16:35:00,53.6,44.4,29.96,WNW,302,3.0,3.0,71,0.00,,,0.00,WeatherCatV1.10B1784,2013-03-27 23:35:00,
2013-03-27 16:40:00,53.6,44.1,29.95,WNW,297,2.0,3.0,70,0.00,,,0.00,WeatherCatV1.10B1784,2013-03-27 23:40:00,
2013-03-27 16:45:00,53.4,44.6,29.95,WNW,298,2.0,3.0,72,0.00,,,0.00,WeatherCatV1.10B1784,2013-03-27 23:45:00,
2013-03-27 16:50:00,53.3,44.9,29.95,WNW,296,1.0,2.0,73,0.00,,,0.00,WeatherCatV1.10B1784,2013-03-27 23:50:00,
2013-03-27 16:55:00,53.8,45.0,29.95,WNW,290,1.0,2.0,72,0.00,,,0.00,WeatherCatV1.10B1784,2013-03-27 23:55:00,
2013-03-27 17:00:00,53.9,44.3,29.95,WNW,294,2.0,3.0,70,0.00,,,0.00,WeatherCatV1.10B1784,2013-03-28 00:00:00,
2013-03-27 17:05:00,54.1,44.2,29.95,WNW,298,2.0,3.0,69,0.00,,,0.00,WeatherCatV1.10B1784,2013-03-28 00:05:00,
2013-03-27 17:10:00,54.2,45.4,29.95,WNW,294,1.0,2.0,72,0.00,,,0.00,WeatherCatV1.10B1784,2013-03-28 00:10:00,
2013-03-27 17:15:00,54.1,45.3,29.95,WNW,288,1.0,2.0,72,0.00,,,0.00,WeatherCatV1.10B1784,2013-03-28 00:15:00,
2013-03-27 17:20:00,53.8,45.3,29.95,WNW,289,1.0,2.0,73,0.00,,,0.00,WeatherCatV1.10B1784,2013-03-28 00:20:00,
2013-03-27 17:25:00,53.3,44.9,29.95,WNW,300,1.0,1.0,73,0.00,,,0.00,WeatherCatV1.10B1784,2013-03-28 00:25:00,
2013-03-27 17:30:00,53.3,45.6,29.95,WNW,296,0.0,0.0,75,0.00,,,0.00,WeatherCatV1.10B1784,2013-03-28 00:30:00,
2013-03-27 17:35:00,53.6,44.8,29.95,WNW,296,0.0,1.0,72,0.00,,,0.00,WeatherCatV1.10B1784,2013-03-28 00:35:00,
2013-03-27 17:40:00,54.4,45.6,29.95,West,268,0.0,0.0,72,0.00,,,0.00,WeatherCatV1.10B1784,2013-03-28 00:40:00,
2013-03-27 17:45:00,55.4,45.4,29.95,NNW,335,0.0,1.0,69,0.00,,,0.00,WeatherCatV1.10B1784,2013-03-28 00:45:00,
2013-03-27 17:50:00,55.5,44.3,29.95,NNW,332,1.0,1.0,66,0.00,,,0.00,WeatherCatV1.10B1784,2013-03-28 00:50:00,
2013-03-27 17:55:00,55.7,44.5,29.95,NNW,330,0.0,1.0,66,0.00,,,0.00,WeatherCatV1.10B1784,2013-03-28 00:55:00,
2013-03-27 18:00:00,56.6,45.0,29.95,WNW,295,0.0,1.0,65,0.00,,,0.00,WeatherCatV1.10B1784,2013-03-28 01:00:00,
2013-03-27 18:05:00,57.4,44.9,29.95,WNW,295,0.0,1.0,63,0.00,,,0.00,WeatherCatV1.10B1784,2013-03-28 01:05:00,
2013-03-27 18:10:00,56.9,44.0,29.95,WNW,296,0.0,1.0,62,0.00,,,0.00,WeatherCatV1.10B1784,2013-03-28 01:10:00,
2013-03-27 18:15:00,56.2,42.9,29.95,WNW,296,0.0,1.0,61,0.00,,,0.00,WeatherCatV1.10B1784,2013-03-28 01:15:00,
2013-03-27 18:20:00,55.7,43.3,29.95,WNW,296,1.0,1.0,63,0.00,,,0.00,WeatherCatV1.10B1784,2013-03-28 01:20:00,
2013-03-27 18:25:00,55.4,43.4,29.95,WNW,297,0.0,1.0,64,0.00,,,0.00,WeatherCatV1.10B1784,2013-03-28 01:25:00,
2013-03-27 18:31:00,55.1,43.5,29.95,WNW,296,1.0,1.0,65,0.00,,,0.00,WeatherCatV1.10B1784,2013-03-28 01:31:00,
2013-03-27 18:36:00,55.2,44.0,29.95,WNW,296,0.0,1.0,66,0.00,,,0.00,WeatherCatV1.10B1784,2013-03-28 01:36:00,
2013-03-27 18:41:00,55.5,43.1,29.95,WNW,296,0.0,1.0,63,0.00,,,0.00,WeatherCatV1.10B1784,2013-03-28 01:41:00,
2013-03-27 18:46:00,55.3,42.5,29.95,WSW,249,1.0,1.0,62,0.00,,,0.00,WeatherCatV1.10B1784,2013-03-28 01:46:00,
2013-03-27 18:51:00,55.3,42.9,29.96,WSW,257,0.0,1.0,63,0.00,,,0.00,WeatherCatV1.10B1784,2013-03-28 01:51:00,
2013-03-27 18:56:00,56.1,43.7,29.96,WSW,257,0.0,0.0,63,0.00,,,0.00,WeatherCatV1.10B1784,2013-03-28 01:56:00,
2013-03-27 19:01:00,56.6,44.6,29.96,WSW,257,0.0,0.0,64,0.00,,,0.00,WeatherCatV1.10B1784,2013-03-28 02:01:00,
2013-03-27 19:06:00,56.4,43.1,29.96,WSW,257,0.0,0.0,61,0.00,,,0.00,WeatherCatV1.10B1784,2013-03-28 02:06:00,
2013-03-27 19:11:00,56.0,41.9,29.96,WSW,257,0.0,0.0,59,0.00,,,0.00,WeatherCatV1.10B1784,2013-03-28 02:11:00,
2013-03-27 19:16:00,55.3,41.2,29.96,WSW,257,0.0,0.0,59,0.00,,,0.00,WeatherCatV1.10B1784,2013-03-28 02:16:00,
2013-03-27 19:21:00,54.7,41.5,29.96,WSW,257,0.0,0.0,61,0.00,,,0.00,WeatherCatV1.10B1784,2013-03-28 02:21:00,
2013-03-27 19:26:00,54.3,42.4,29.96,WSW,257,0.0,0.0,64,0.00,,,0.00,WeatherCatV1.10B1784,2013-03-28 02:26:00,
2013-03-27 19:31:00,53.8,43.1,29.96,WSW,257,1.0,1.0,67,0.00,,,0.00,WeatherCatV1.10B1784,2013-03-28 02:31:00,
2013-03-27 19:36:00,53.2,42.9,29.96,SSE,160,2.0,2.0,68,0.00,,,0.00,WeatherCatV1.10B1784,2013-03-28 02:36:00,
2013-03-27 19:41:00,52.7,42.8,29.96,SSE,161,2.0,2.0,69,0.00,,,0.00,WeatherCatV1.10B1784,2013-03-28 02:41:00,
2013-03-27 19:46:00,52.3,42.4,29.96,SSE,165,3.0,3.0,69,0.00,,,0.00,WeatherCatV1.10B1784,2013-03-28 02:46:00,
2013-03-27 19:51:00,52.4,42.2,29.96,SSE,165,1.0,2.0,68,0.00,,,0.00,WeatherCatV1.10B1784,2013-03-28 02:51:00,
2013-03-27 19:56:00,52.3,42.4,29.96,SSE,150,1.0,1.0,69,0.00,,,0.00,WeatherCatV1.10B1784,2013-03-28 02:56:00,
2013-03-27 20:01:00,51.8,42.3,29.96,SSE,166,3.0,3.0,70,0.00,,,0.00,WeatherCatV1.10B1784,2013-03-28 03:01:00,
2013-03-27 20:06:00,52.0,42.9,29.97,SSW,205,1.0,3.0,71,0.00,,,0.00,WeatherCatV1.10B1784,2013-03-28 03:06:00,
2013-03-27 20:11:00,52.1,43.4,29.97,SSE,165,4.0,5.0,72,0.00,,,0.00,WeatherCatV1.10B1784,2013-03-28 03:11:00,
2013-03-27 20:16:00,52.3,42.8,29.97,South,188,1.0,4.0,70,0.00,,,0.00,WeatherCatV1.10B1784,2013-03-28 03:16:00,
2013-03-27 20:21:00,52.5,42.6,29.97,SE,127,2.0,4.0,69,0.00,,,0.00,WeatherCatV1.10B1784,2013-03-28 03:21:00,
2013-03-27 20:26:00,52.6,42.7,29.97,SSW,195,4.0,4.0,69,0.00,,,0.00,WeatherCatV1.10B1784,2013-03-28 03:26:00,
2013-03-27 20:31:00,52.6,42.3,29.97,SSE,153,3.0,4.0,68,0.00,,,0.00,WeatherCatV1.10B1784,2013-03-28 03:31:00,
2013-03-27 20:36:00,52.6,42.3,29.97,South,188,5.0,5.0,68,0.00,,,0.00,WeatherCatV1.10B1784,2013-03-28 03:36:00,
2013-03-27 20:40:00,52.6,42.3,29.97,South,172,3.0,5.0,68,0.00,,,0.00,WeatherCatV1.10B1784,2013-03-28 03:40:00,
2013-03-27 20:45:00,52.6,42.7,29.97,SSW,192,4.0,6.0,69,0.00,,,0.00,WeatherCatV1.10B1784,2013-03-28 03:45:00,
2013-03-27 20:50:00,52.6,42.7,29.97,SSW,198,4.0,4.0,69,0.00,,,0.00,WeatherCatV1.10B1784,2013-03-28 03:50:00,
2013-03-27 20:56:00,52.5,42.6,29.98,South,170,1.0,3.0,69,0.00,,,0.00,WeatherCatV1.10B1784,2013-03-28 03:56:00,
2013-03-27 21:00:00,52.5,42.6,29.98,South,188,1.0,5.0,69,0.00,,,0.00,WeatherCatV1.10B1784,2013-03-28 04:00:00,
2013-03-27 21:01:00,52.5,42.6,29.98,SSW,194,2.0,6.0,69,0.00,,,0.00,WeatherCatV1.10B1784,2013-03-28 04:01:00,
2013-03-27 21:06:00,52.7,43.2,29.98,SSE,160,2.0,5.0,70,0.00,,,0.00,WeatherCatV1.10B1784,2013-03-28 04:06:00,
2013-03-27 21:11:00,52.8,43.3,29.98,South,170,2.0,5.0,70,0.00,,,0.00,WeatherCatV1.10B1784,2013-03-28 04:11:00,
2013-03-27 21:16:00,52.9,43.4,29.98,SW,226,1.0,5.0,70,0.00,,,0.00,WeatherCatV1.10B1784,2013-03-28 04:16:00,
2013-03-27 21:21:00,53.0,43.5,29.98,South,172,5.0,6.0,70,0.00,,,0.00,WeatherCatV1.10B1784,2013-03-28 04:21:00,
2013-03-27 21:26:00,53.1,43.6,29.98,SW,229,1.0,5.0,70,0.00,,,0.00,WeatherCatV1.10B1784,2013-03-28 04:26:00,
2013-03-27 21:31:00,53.2,43.7,29.98,South,180,5.0,7.0,70,0.00,,,0.00,WeatherCatV1.10B1784,2013-03-28 04:31:00,
2013-03-27 21:36:00,53.3,43.8,29.99,South,187,2.0,6.0,70,0.00,,,0.00,WeatherCatV1.10B1784,2013-03-28 04:36:00,
2013-03-27 21:41:00,53.4,43.9,29.99,South,170,2.0,5.0,70,0.00,,,0.00,WeatherCatV1.10B1784,2013-03-28 04:41:00,
2013-03-27 21:46:00,53.5,44.0,29.99,SSW,207,4.0,5.0,70,0.00,,,0.00,WeatherCatV1.10B1784,2013-03-28 04:46:00,
2013-03-27 21:51:00,53.6,43.7,29.99,SSE,166,2.0,5.0,69,0.00,,,0.00,WeatherCatV1.10B1784,2013-03-28 04:51:00,
2013-03-27 21:56:00,53.7,43.8,29.99,South,177,1.0,2.0,69,0.00,,,0.00,WeatherCatV1.10B1784,2013-03-28 04:56:00,
2013-03-27 22:01:00,53.8,43.5,29.99,SE,144,2.0,3.0,68,0.00,,,0.00,WeatherCatV1.10B1784,2013-03-28 05:01:00,
2013-03-27 22:06:00,54.0,43.7,29.99,South,186,0.0,2.0,68,0.00,,,0.00,WeatherCatV1.10B1784,2013-03-28 05:06:00,
2013-03-27 22:11:00,54.0,43.7,29.99,ESE,120,0.0,1.0,68,0.00,,,0.00,WeatherCatV1.10B1784,2013-03-28 05:11:00,
2013-03-27 22:16:00,53.8,43.5,29.99,ENE,66,2.0,3.0,68,0.00,,,0.00,WeatherCatV1.10B1784,2013-03-28 05:16:00,
2013-03-27 22:21:00,53.7,43.8,29.99,East,86,0.0,1.0,69,0.00,,,0.00,WeatherCatV1.10B1784,2013-03-28 05:21:00,
2013-03-27 22:26:00,53.4,43.9,29.99,East,84,1.0,2.0,70,0.00,,,0.00,WeatherCatV1.10B1784,2013-03-28 05:26:00,
2013-03-27 22:31:00,53.3,43.8,29.99,East,96,0.0,1.0,70,0.00,,,0.00,WeatherCatV1.10B1784,2013-03-28 05:31:00,
2013-03-27 22:36:00,53.1,43.6,29.99,ESE,109,1.0,1.0,70,0.00,,,0.00,WeatherCatV1.10B1784,2013-03-28 05:36:00,
2013-03-27 22:41:00,53.1,43.6,29.99,ESE,110,0.0,2.0,70,0.00,,,0.00,WeatherCatV1.10B1784,2013-03-28 05:41:00,
2013-03-27 22:46:00,52.9,43.8,29.99,ESE,110,0.0,0.0,71,0.00,,,0.00,WeatherCatV1.10B1784,2013-03-28 05:46:00,
2013-03-27 22:51:00,52.6,43.5,29.99,ESE,110,0.0,0.0,71,0.00,,,0.00,WeatherCatV1.10B1784,2013-03-28 05:51:00,
2013-03-27 22:56:00,52.4,44.0,29.99,SW,226,1.0,2.0,73,0.00,,,0.00,WeatherCatV1.10B1784,2013-03-28 05:56:00,
2013-03-27 23:01:00,52.1,44.1,29.99,SW,236,0.0,1.0,74,0.00,,,0.00,WeatherCatV1.10B1784,2013-03-28 06:01:00,
2013-03-27 23:06:00,51.8,44.1,29.99,SE,143,1.0,1.0,75,0.00,,,0.00,WeatherCatV1.10B1784,2013-03-28 06:06:00,
2013-03-27 23:11:00,51.6,44.3,30.00,SE,137,0.0,1.0,76,0.00,,,0.00,WeatherCatV1.10B1784,2013-03-28 06:11:00,
2013-03-27 23:16:00,51.2,43.9,30.00,SE,134,1.0,2.0,76,0.00,,,0.00,WeatherCatV1.10B1784,2013-03-28 06:16:00,
2013-03-27 23:21:00,51.1,44.1,30.00,ENE,74,1.0,2.0,77,0.00,,,0.00,WeatherCatV1.10B1784,2013-03-28 06:21:00,
2013-03-27 23:26:00,50.8,44.2,30.00,ESE,111,2.0,3.0,78,0.00,,,0.00,WeatherCatV1.10B1784,2013-03-28 06:26:00,
2013-03-27 23:31:00,50.7,44.4,30.00,ESE,116,4.0,4.0,79,0.00,,,0.00,WeatherCatV1.10B1784,2013-03-28 06:31:00,
2013-03-27 23:36:00,50.7,44.1,30.01,SSE,149,0.0,4.0,78,0.00,,,0.00,WeatherCatV1.10B1784,2013-03-28 06:36:00,
2013-03-27 23:41:00,50.6,44.3,30.00,SSW,211,1.0,2.0,79,0.00,,,0.00,WeatherCatV1.10B1784,2013-03-28 06:41:00,
2013-03-27 23:46:00,50.6,44.3,30.01,ESE,107,1.0,2.0,79,0.00,,,0.00,WeatherCatV1.10B1784,2013-03-28 06:46:00,
2013-03-27 23:51:00,50.4,44.5,30.01,ESE,115,0.0,0.0,80,0.00,,,0.00,WeatherCatV1.10B1784,2013-03-28 06:51:00,
2013-03-27 23:56:00,50.3,44.4,30.01,ESE,116,0.0,0.0,80,0.00,,,0.00,WeatherCatV1.10B1784,2013-03-28 06:56:00,